sensor_id;sensor_type;location;lat;lon;timestamp;P1;durP1;ratioP1;P2;durP2;ratioP2
19560;SDS011;9927;47.792;10.616;2023-07-13T00:01:53;4.50;;;4.30;;
19560;SDS011;9927;47.792;10.616;2023-07-13T00:04:21;5.07;;;4.68;;
19560;SDS011;9927;47.792;10.616;2023-07-13T00:06:52;4.68;;;4.30;;
19560;SDS011;9927;47.792;10.616;2023-07-13T00:09:20;4.55;;;4.20;;
19560;SDS011;9927;47.792;10.616;2023-07-13T00:11:52;4.88;;;4.47;;
19560;SDS011;9927;47.792;10.616;2023-07-13T00:14:22;5.05;;;4.55;;
19560;SDS011;9927;47.792;10.616;2023-07-13T00:16:50;5.03;;;4.72;;
19560;SDS011;9927;47.792;10.616;2023-07-13T00:19:17;4.18;;;3.78;;
19560;SDS011;9927;47.792;10.616;2023-07-13T00:21:45;4.43;;;4.03;;
19560;SDS011;9927;47.792;10.616;2023-07-13T00:24:17;4.22;;;3.90;;
19560;SDS011;9927;47.792;10.616;2023-07-13T00:26:50;4.75;;;4.43;;
19560;SDS011;9927;47.792;10.616;2023-07-13T00:29:18;5.07;;;4.63;;
19560;SDS011;9927;47.792;10.616;2023-07-13T00:31:47;4.60;;;4.20;;
19560;SDS011;9927;47.792;10.616;2023-07-13T00:34:14;4.75;;;4.45;;
19560;SDS011;9927;47.792;10.616;2023-07-13T00:36:42;4.72;;;4.32;;
19560;SDS011;9927;47.792;10.616;2023-07-13T00:39:09;4.28;;;3.97;;
19560;SDS011;9927;47.792;10.616;2023-07-13T00:41:36;5.38;;;4.88;;
19560;SDS011;9927;47.792;10.616;2023-07-13T00:44:03;4.28;;;3.97;;
19560;SDS011;9927;47.792;10.616;2023-07-13T00:46:32;4.78;;;4.38;;
19560;SDS011;9927;47.792;10.616;2023-07-13T00:49:01;5.30;;;4.82;;
19560;SDS011;9927;47.792;10.616;2023-07-13T00:51:36;4.50;;;3.92;;
19560;SDS011;9927;47.792;10.616;2023-07-13T00:54:30;5.07;;;4.57;;
19560;SDS011;9927;47.792;10.616;2023-07-13T00:57:09;4.97;;;4.57;;
19560;SDS011;9927;47.792;10.616;2023-07-13T00:59:42;5.93;;;4.63;;
19560;SDS011;9927;47.792;10.616;2023-07-13T01:02:13;4.80;;;4.50;;
19560;SDS011;9927;47.792;10.616;2023-07-13T01:04:40;4.82;;;4.15;;
19560;SDS011;9927;47.792;10.616;2023-07-13T01:07:09;4.60;;;4.20;;
19560;SDS011;9927;47.792;10.616;2023-07-13T01:09:38;4.85;;;4.30;;
19560;SDS011;9927;47.792;10.616;2023-07-13T01:12:05;4.38;;;3.97;;
19560;SDS011;9927;47.792;10.616;2023-07-13T01:14:33;4.38;;;4.05;;
19560;SDS011;9927;47.792;10.616;2023-07-13T01:17:00;4.57;;;4.18;;
19560;SDS011;9927;47.792;10.616;2023-07-13T01:19:37;4.25;;;3.95;;
19560;SDS011;9927;47.792;10.616;2023-07-13T01:22:10;4.53;;;4.05;;
19560;SDS011;9927;47.792;10.616;2023-07-13T01:24:41;6.78;;;4.28;;
19560;SDS011;9927;47.792;10.616;2023-07-13T01:27:12;9.02;;;4.20;;
19560;SDS011;9927;47.792;10.616;2023-07-13T01:29:44;4.35;;;4.05;;
19560;SDS011;9927;47.792;10.616;2023-07-13T01:32:15;4.28;;;4.05;;
19560;SDS011;9927;47.792;10.616;2023-07-13T01:34:51;4.78;;;4.35;;
19560;SDS011;9927;47.792;10.616;2023-07-13T01:37:21;4.50;;;4.20;;
19560;SDS011;9927;47.792;10.616;2023-07-13T01:39:49;4.55;;;4.20;;
19560;SDS011;9927;47.792;10.616;2023-07-13T01:42:16;5.45;;;4.20;;
19560;SDS011;9927;47.792;10.616;2023-07-13T01:44:44;4.78;;;3.90;;
19560;SDS011;9927;47.792;10.616;2023-07-13T01:47:11;4.15;;;3.85;;
19560;SDS011;9927;47.792;10.616;2023-07-13T01:49:39;4.55;;;4.25;;
19560;SDS011;9927;47.792;10.616;2023-07-13T01:52:06;4.53;;;4.20;;
19560;SDS011;9927;47.792;10.616;2023-07-13T01:54:33;4.93;;;4.40;;
19560;SDS011;9927;47.792;10.616;2023-07-13T01:57:01;6.25;;;4.30;;
19560;SDS011;9927;47.792;10.616;2023-07-13T01:59:28;4.25;;;3.88;;
19560;SDS011;9927;47.792;10.616;2023-07-13T02:01:55;4.18;;;3.97;;
19560;SDS011;9927;47.792;10.616;2023-07-13T02:04:23;4.55;;;4.22;;
19560;SDS011;9927;47.792;10.616;2023-07-13T02:06:50;5.25;;;4.68;;
19560;SDS011;9927;47.792;10.616;2023-07-13T02:09:17;4.63;;;4.32;;
19560;SDS011;9927;47.792;10.616;2023-07-13T02:11:44;3.55;;;3.35;;
19560;SDS011;9927;47.792;10.616;2023-07-13T02:14:12;4.30;;;4.00;;
19560;SDS011;9927;47.792;10.616;2023-07-13T02:16:39;4.53;;;4.15;;
19560;SDS011;9927;47.792;10.616;2023-07-13T02:19:06;4.80;;;4.40;;
19560;SDS011;9927;47.792;10.616;2023-07-13T02:21:34;4.35;;;3.95;;
19560;SDS011;9927;47.792;10.616;2023-07-13T02:24:01;7.10;;;4.22;;
19560;SDS011;9927;47.792;10.616;2023-07-13T02:26:28;3.95;;;3.75;;
19560;SDS011;9927;47.792;10.616;2023-07-13T02:28:56;4.18;;;3.88;;
19560;SDS011;9927;47.792;10.616;2023-07-13T02:31:23;5.07;;;4.60;;
19560;SDS011;9927;47.792;10.616;2023-07-13T02:33:50;4.65;;;4.25;;
19560;SDS011;9927;47.792;10.616;2023-07-13T02:36:17;4.55;;;4.25;;
19560;SDS011;9927;47.792;10.616;2023-07-13T02:38:45;4.78;;;4.13;;
19560;SDS011;9927;47.792;10.616;2023-07-13T02:41:12;4.32;;;3.92;;
19560;SDS011;9927;47.792;10.616;2023-07-13T02:43:39;4.07;;;3.80;;
19560;SDS011;9927;47.792;10.616;2023-07-13T02:46:07;4.80;;;4.35;;
19560;SDS011;9927;47.792;10.616;2023-07-13T02:48:36;6.03;;;4.28;;
19560;SDS011;9927;47.792;10.616;2023-07-13T02:51:04;4.53;;;4.00;;
19560;SDS011;9927;47.792;10.616;2023-07-13T02:53:32;4.63;;;4.32;;
19560;SDS011;9927;47.792;10.616;2023-07-13T02:56:00;4.40;;;4.10;;
19560;SDS011;9927;47.792;10.616;2023-07-13T02:58:27;4.82;;;4.38;;
19560;SDS011;9927;47.792;10.616;2023-07-13T03:00:55;4.13;;;3.78;;
19560;SDS011;9927;47.792;10.616;2023-07-13T03:03:24;4.18;;;3.88;;
19560;SDS011;9927;47.792;10.616;2023-07-13T03:05:57;4.75;;;4.45;;
19560;SDS011;9927;47.792;10.616;2023-07-13T03:08:26;4.90;;;4.45;;
19560;SDS011;9927;47.792;10.616;2023-07-13T03:11:04;5.80;;;4.47;;
19560;SDS011;9927;47.792;10.616;2023-07-13T03:13:38;4.28;;;3.97;;
19560;SDS011;9927;47.792;10.616;2023-07-13T03:16:06;4.43;;;4.05;;
19560;SDS011;9927;47.792;10.616;2023-07-13T03:18:35;5.38;;;4.97;;
19560;SDS011;9927;47.792;10.616;2023-07-13T03:21:03;4.57;;;4.28;;
19560;SDS011;9927;47.792;10.616;2023-07-13T03:23:31;3.80;;;3.60;;
19560;SDS011;9927;47.792;10.616;2023-07-13T03:26:12;4.15;;;3.85;;
19560;SDS011;9927;47.792;10.616;2023-07-13T03:28:42;4.95;;;4.55;;
19560;SDS011;9927;47.792;10.616;2023-07-13T03:31:11;4.88;;;4.47;;
19560;SDS011;9927;47.792;10.616;2023-07-13T03:33:40;4.75;;;4.30;;
19560;SDS011;9927;47.792;10.616;2023-07-13T03:36:11;4.10;;;3.80;;
19560;SDS011;9927;47.792;10.616;2023-07-13T03:38:50;4.07;;;3.85;;
19560;SDS011;9927;47.792;10.616;2023-07-13T03:41:20;4.85;;;4.55;;
19560;SDS011;9927;47.792;10.616;2023-07-13T03:43:47;4.03;;;3.83;;
19560;SDS011;9927;47.792;10.616;2023-07-13T03:46:16;4.63;;;4.22;;
19560;SDS011;9927;47.792;10.616;2023-07-13T03:48:44;3.67;;;3.47;;
19560;SDS011;9927;47.792;10.616;2023-07-13T03:51:13;4.45;;;4.05;;
19560;SDS011;9927;47.792;10.616;2023-07-13T03:53:43;4.10;;;3.80;;
19560;SDS011;9927;47.792;10.616;2023-07-13T03:56:11;4.57;;;4.18;;
19560;SDS011;9927;47.792;10.616;2023-07-13T03:58:40;4.70;;;4.30;;
19560;SDS011;9927;47.792;10.616;2023-07-13T04:01:09;6.57;;;5.00;;
19560;SDS011;9927;47.792;10.616;2023-07-13T04:03:37;4.40;;;4.10;;
19560;SDS011;9927;47.792;10.616;2023-07-13T04:06:06;5.82;;;5.32;;
19560;SDS011;9927;47.792;10.616;2023-07-13T04:08:35;4.32;;;4.03;;
19560;SDS011;9927;47.792;10.616;2023-07-13T04:11:03;5.35;;;4.85;;
19560;SDS011;9927;47.792;10.616;2023-07-13T04:13:31;4.60;;;4.22;;
19560;SDS011;9927;47.792;10.616;2023-07-13T04:15:58;4.63;;;4.32;;
19560;SDS011;9927;47.792;10.616;2023-07-13T04:18:26;4.40;;;4.10;;
19560;SDS011;9927;47.792;10.616;2023-07-13T04:20:53;4.88;;;4.47;;
19560;SDS011;9927;47.792;10.616;2023-07-13T04:23:20;4.35;;;4.05;;
19560;SDS011;9927;47.792;10.616;2023-07-13T04:25:48;4.32;;;3.95;;
19560;SDS011;9927;47.792;10.616;2023-07-13T04:28:20;4.25;;;3.95;;
19560;SDS011;9927;47.792;10.616;2023-07-13T04:30:49;5.25;;;4.90;;
19560;SDS011;9927;47.792;10.616;2023-07-13T04:33:17;4.88;;;4.40;;
19560;SDS011;9927;47.792;10.616;2023-07-13T04:35:49;4.18;;;3.97;;
19560;SDS011;9927;47.792;10.616;2023-07-13T04:38:23;4.05;;;3.75;;
19560;SDS011;9927;47.792;10.616;2023-07-13T04:40:51;4.75;;;4.25;;
19560;SDS011;9927;47.792;10.616;2023-07-13T04:43:19;3.95;;;3.67;;
19560;SDS011;9927;47.792;10.616;2023-07-13T04:45:46;4.00;;;3.70;;
19560;SDS011;9927;47.792;10.616;2023-07-13T04:48:13;4.90;;;4.43;;
19560;SDS011;9927;47.792;10.616;2023-07-13T04:50:40;4.75;;;4.43;;
19560;SDS011;9927;47.792;10.616;2023-07-13T04:53:08;4.55;;;4.03;;
19560;SDS011;9927;47.792;10.616;2023-07-13T04:55:35;4.38;;;4.00;;
19560;SDS011;9927;47.792;10.616;2023-07-13T04:58:02;4.30;;;3.95;;
19560;SDS011;9927;47.792;10.616;2023-07-13T05:00:30;4.65;;;4.28;;
19560;SDS011;9927;47.792;10.616;2023-07-13T05:02:58;5.07;;;4.68;;
19560;SDS011;9927;47.792;10.616;2023-07-13T05:05:26;4.72;;;4.40;;
19560;SDS011;9927;47.792;10.616;2023-07-13T05:07:53;4.70;;;4.30;;
19560;SDS011;9927;47.792;10.616;2023-07-13T05:10:21;5.97;;;4.50;;
19560;SDS011;9927;47.792;10.616;2023-07-13T05:12:48;4.63;;;4.30;;
19560;SDS011;9927;47.792;10.616;2023-07-13T05:15:16;5.40;;;4.80;;
19560;SDS011;9927;47.792;10.616;2023-07-13T05:17:47;6.32;;;4.43;;
19560;SDS011;9927;47.792;10.616;2023-07-13T05:20:16;6.53;;;6.03;;
19560;SDS011;9927;47.792;10.616;2023-07-13T05:22:44;5.47;;;5.07;;
19560;SDS011;9927;47.792;10.616;2023-07-13T05:25:15;5.50;;;5.10;;
19560;SDS011;9927;47.792;10.616;2023-07-13T05:27:43;5.45;;;5.00;;
19560;SDS011;9927;47.792;10.616;2023-07-13T05:30:13;5.80;;;5.20;;
19560;SDS011;9927;47.792;10.616;2023-07-13T05:32:40;5.97;;;5.15;;
19560;SDS011;9927;47.792;10.616;2023-07-13T05:35:08;5.80;;;4.97;;
19560;SDS011;9927;47.792;10.616;2023-07-13T05:37:36;5.22;;;4.82;;
19560;SDS011;9927;47.792;10.616;2023-07-13T05:40:04;7.00;;;5.70;;
19560;SDS011;9927;47.792;10.616;2023-07-13T05:42:32;6.28;;;5.78;;
19560;SDS011;9927;47.792;10.616;2023-07-13T05:44:59;7.45;;;6.82;;
19560;SDS011;9927;47.792;10.616;2023-07-13T05:47:26;6.40;;;5.85;;
19560;SDS011;9927;47.792;10.616;2023-07-13T05:49:54;5.40;;;5.00;;
19560;SDS011;9927;47.792;10.616;2023-07-13T05:52:21;5.68;;;5.18;;
19560;SDS011;9927;47.792;10.616;2023-07-13T05:54:48;9.65;;;5.45;;
19560;SDS011;9927;47.792;10.616;2023-07-13T05:57:15;5.38;;;4.97;;
19560;SDS011;9927;47.792;10.616;2023-07-13T05:59:43;4.72;;;4.43;;
19560;SDS011;9927;47.792;10.616;2023-07-13T06:02:10;5.35;;;4.85;;
19560;SDS011;9927;47.792;10.616;2023-07-13T06:04:37;6.07;;;4.97;;
19560;SDS011;9927;47.792;10.616;2023-07-13T06:07:04;4.85;;;4.55;;
19560;SDS011;9927;47.792;10.616;2023-07-13T06:09:32;5.47;;;4.97;;
19560;SDS011;9927;47.792;10.616;2023-07-13T06:11:59;4.68;;;4.30;;
19560;SDS011;9927;47.792;10.616;2023-07-13T06:14:27;6.32;;;5.10;;
19560;SDS011;9927;47.792;10.616;2023-07-13T06:16:54;5.60;;;5.10;;
19560;SDS011;9927;47.792;10.616;2023-07-13T06:19:21;5.53;;;5.00;;
19560;SDS011;9927;47.792;10.616;2023-07-13T06:21:49;5.45;;;4.95;;
19560;SDS011;9927;47.792;10.616;2023-07-13T06:24:16;5.82;;;5.35;;
19560;SDS011;9927;47.792;10.616;2023-07-13T06:26:43;6.25;;;5.57;;
19560;SDS011;9927;47.792;10.616;2023-07-13T06:29:11;6.43;;;5.32;;
19560;SDS011;9927;47.792;10.616;2023-07-13T06:31:38;6.90;;;6.22;;
19560;SDS011;9927;47.792;10.616;2023-07-13T06:34:05;5.10;;;4.70;;
19560;SDS011;9927;47.792;10.616;2023-07-13T06:36:33;5.75;;;5.00;;
19560;SDS011;9927;47.792;10.616;2023-07-13T06:39:00;5.18;;;4.45;;
19560;SDS011;9927;47.792;10.616;2023-07-13T06:41:27;4.32;;;4.03;;
19560;SDS011;9927;47.792;10.616;2023-07-13T06:43:55;4.25;;;3.85;;
19560;SDS011;9927;47.792;10.616;2023-07-13T06:46:23;5.07;;;3.72;;
19560;SDS011;9927;47.792;10.616;2023-07-13T06:48:50;5.20;;;4.10;;
19560;SDS011;9927;47.792;10.616;2023-07-13T06:51:17;3.95;;;3.55;;
19560;SDS011;9927;47.792;10.616;2023-07-13T06:53:44;3.40;;;3.20;;
19560;SDS011;9927;47.792;10.616;2023-07-13T06:56:12;4.82;;;4.43;;
19560;SDS011;9927;47.792;10.616;2023-07-13T06:58:39;3.25;;;3.05;;
19560;SDS011;9927;47.792;10.616;2023-07-13T07:01:06;4.32;;;3.67;;
19560;SDS011;9927;47.792;10.616;2023-07-13T07:03:34;5.07;;;3.60;;
19560;SDS011;9927;47.792;10.616;2023-07-13T07:06:15;5.07;;;3.45;;
19560;SDS011;9927;47.792;10.616;2023-07-13T07:08:48;4.97;;;3.45;;
19560;SDS011;9927;47.792;10.616;2023-07-13T07:11:17;5.30;;;3.60;;
19560;SDS011;9927;47.792;10.616;2023-07-13T07:13:46;3.50;;;3.25;;
19560;SDS011;9927;47.792;10.616;2023-07-13T07:16:14;4.18;;;3.88;;
19560;SDS011;9927;47.792;10.616;2023-07-13T07:18:41;4.80;;;3.70;;
19560;SDS011;9927;47.792;10.616;2023-07-13T07:21:09;6.95;;;3.80;;
19560;SDS011;9927;47.792;10.616;2023-07-13T07:23:37;4.03;;;3.67;;
19560;SDS011;9927;47.792;10.616;2023-07-13T07:26:04;4.15;;;3.72;;
19560;SDS011;9927;47.792;10.616;2023-07-13T07:28:32;3.80;;;3.58;;
19560;SDS011;9927;47.792;10.616;2023-07-13T07:31:02;4.63;;;3.35;;
19560;SDS011;9927;47.792;10.616;2023-07-13T07:33:32;4.22;;;3.25;;
19560;SDS011;9927;47.792;10.616;2023-07-13T07:36:01;3.47;;;3.17;;
19560;SDS011;9927;47.792;10.616;2023-07-13T07:38:31;3.30;;;3.08;;
19560;SDS011;9927;47.792;10.616;2023-07-13T07:41:00;4.03;;;3.70;;
19560;SDS011;9927;47.792;10.616;2023-07-13T07:43:34;3.97;;;3.20;;
19560;SDS011;9927;47.792;10.616;2023-07-13T07:46:02;4.85;;;3.58;;
19560;SDS011;9927;47.792;10.616;2023-07-13T07:48:30;3.75;;;3.50;;
19560;SDS011;9927;47.792;10.616;2023-07-13T07:50:58;4.13;;;3.83;;
19560;SDS011;9927;47.792;10.616;2023-07-13T07:53:25;4.00;;;3.63;;
19560;SDS011;9927;47.792;10.616;2023-07-13T07:55:52;4.28;;;3.90;;
19560;SDS011;9927;47.792;10.616;2023-07-13T07:58:22;4.10;;;3.70;;
19560;SDS011;9927;47.792;10.616;2023-07-13T08:00:52;4.32;;;3.70;;
19560;SDS011;9927;47.792;10.616;2023-07-13T08:03:22;4.30;;;3.90;;
19560;SDS011;9927;47.792;10.616;2023-07-13T08:05:53;4.10;;;3.60;;
19560;SDS011;9927;47.792;10.616;2023-07-13T08:08:23;4.15;;;3.75;;
19560;SDS011;9927;47.792;10.616;2023-07-13T08:10:51;3.50;;;3.30;;
19560;SDS011;9927;47.792;10.616;2023-07-13T08:13:25;4.65;;;3.80;;
19560;SDS011;9927;47.792;10.616;2023-07-13T08:15:52;3.92;;;3.72;;
19560;SDS011;9927;47.792;10.616;2023-07-13T08:18:19;3.90;;;3.65;;
19560;SDS011;9927;47.792;10.616;2023-07-13T08:20:47;4.03;;;3.67;;
19560;SDS011;9927;47.792;10.616;2023-07-13T08:23:14;4.47;;;3.72;;
19560;SDS011;9927;47.792;10.616;2023-07-13T08:25:49;4.40;;;4.00;;
19560;SDS011;9927;47.792;10.616;2023-07-13T08:28:21;5.35;;;3.60;;
19560;SDS011;9927;47.792;10.616;2023-07-13T08:30:48;5.15;;;3.53;;
19560;SDS011;9927;47.792;10.616;2023-07-13T08:33:19;4.13;;;3.78;;
19560;SDS011;9927;47.792;10.616;2023-07-13T08:35:48;5.45;;;4.18;;
19560;SDS011;9927;47.792;10.616;2023-07-13T08:38:16;4.07;;;3.78;;
19560;SDS011;9927;47.792;10.616;2023-07-13T08:40:45;4.57;;;3.88;;
19560;SDS011;9927;47.792;10.616;2023-07-13T08:43:19;4.60;;;4.20;;
19560;SDS011;9927;47.792;10.616;2023-07-13T08:46:02;5.75;;;4.72;;
19560;SDS011;9927;47.792;10.616;2023-07-13T08:48:34;4.68;;;4.28;;
19560;SDS011;9927;47.792;10.616;2023-07-13T08:51:22;5.55;;;4.10;;
19560;SDS011;9927;47.792;10.616;2023-07-13T08:54:26;4.60;;;4.20;;
19560;SDS011;9927;47.792;10.616;2023-07-13T08:56:59;4.10;;;3.70;;
19560;SDS011;9927;47.792;10.616;2023-07-13T08:59:37;3.83;;;3.50;;
19560;SDS011;9927;47.792;10.616;2023-07-13T09:04:53;6.47;;;4.10;;
19560;SDS011;9927;47.792;10.616;2023-07-13T09:07:26;3.75;;;3.40;;
19560;SDS011;9927;47.792;10.616;2023-07-13T09:10:14;4.90;;;4.50;;
19560;SDS011;9927;47.792;10.616;2023-07-13T09:15:40;4.10;;;3.83;;
19560;SDS011;9927;47.792;10.616;2023-07-13T09:18:11;4.60;;;4.20;;
19560;SDS011;9927;47.792;10.616;2023-07-13T09:20:47;3.63;;;3.42;;
19560;SDS011;9927;47.792;10.616;2023-07-13T09:23:17;4.65;;;4.25;;
19560;SDS011;9927;47.792;10.616;2023-07-13T09:25:48;4.18;;;3.90;;
19560;SDS011;9927;47.792;10.616;2023-07-13T09:28:24;4.35;;;4.10;;
19560;SDS011;9927;47.792;10.616;2023-07-13T09:31:07;4.43;;;4.00;;
19560;SDS011;9927;47.792;10.616;2023-07-13T09:33:56;4.28;;;3.97;;
19560;SDS011;9927;47.792;10.616;2023-07-13T09:44:17;4.82;;;4.35;;
19560;SDS011;9927;47.792;10.616;2023-07-13T09:46:55;4.60;;;4.20;;
19560;SDS011;9927;47.792;10.616;2023-07-13T09:49:26;3.72;;;3.53;;
19560;SDS011;9927;47.792;10.616;2023-07-13T09:51:59;5.20;;;4.72;;
19560;SDS011;9927;47.792;10.616;2023-07-13T09:54:32;4.53;;;4.18;;
19560;SDS011;9927;47.792;10.616;2023-07-13T09:57:01;5.40;;;4.90;;
19560;SDS011;9927;47.792;10.616;2023-07-13T09:59:30;4.95;;;4.28;;
19560;SDS011;9927;47.792;10.616;2023-07-13T10:02:00;6.55;;;4.10;;
19560;SDS011;9927;47.792;10.616;2023-07-13T10:04:32;5.18;;;4.18;;
19560;SDS011;9927;47.792;10.616;2023-07-13T10:07:07;3.60;;;3.40;;
19560;SDS011;9927;47.792;10.616;2023-07-13T10:09:55;6.75;;;4.30;;
19560;SDS011;9927;47.792;10.616;2023-07-13T10:12:24;4.22;;;3.83;;
19560;SDS011;9927;47.792;10.616;2023-07-13T10:14:55;5.53;;;3.63;;
19560;SDS011;9927;47.792;10.616;2023-07-13T10:17:42;4.10;;;3.05;;
19560;SDS011;9927;47.792;10.616;2023-07-13T10:20:11;3.15;;;2.95;;
19560;SDS011;9927;47.792;10.616;2023-07-13T10:22:44;3.03;;;2.83;;
19560;SDS011;9927;47.792;10.616;2023-07-13T10:25:20;3.67;;;2.80;;
19560;SDS011;9927;47.792;10.616;2023-07-13T10:27:50;2.28;;;2.13;;
19560;SDS011;9927;47.792;10.616;2023-07-13T10:30:21;2.38;;;2.03;;
19560;SDS011;9927;47.792;10.616;2023-07-13T10:32:52;2.85;;;2.72;;
19560;SDS011;9927;47.792;10.616;2023-07-13T10:35:20;2.90;;;2.58;;
19560;SDS011;9927;47.792;10.616;2023-07-13T10:37:53;2.60;;;2.50;;
19560;SDS011;9927;47.792;10.616;2023-07-13T10:40:35;3.13;;;2.80;;
19560;SDS011;9927;47.792;10.616;2023-07-13T10:43:16;3.30;;;2.50;;
19560;SDS011;9927;47.792;10.616;2023-07-13T10:45:50;2.53;;;2.42;;
19560;SDS011;9927;47.792;10.616;2023-07-13T10:48:18;2.78;;;2.58;;
19560;SDS011;9927;47.792;10.616;2023-07-13T10:50:48;3.92;;;2.80;;
19560;SDS011;9927;47.792;10.616;2023-07-13T10:58:22;4.55;;;3.00;;
19560;SDS011;9927;47.792;10.616;2023-07-13T11:03:31;4.97;;;3.20;;
19560;SDS011;9927;47.792;10.616;2023-07-13T11:06:12;3.40;;;3.10;;
19560;SDS011;9927;47.792;10.616;2023-07-13T11:14:25;3.65;;;3.28;;
19560;SDS011;9927;47.792;10.616;2023-07-13T11:16:54;5.63;;;3.70;;
19560;SDS011;9927;47.792;10.616;2023-07-13T11:24:48;3.55;;;3.35;;
19560;SDS011;9927;47.792;10.616;2023-07-13T11:27:30;3.08;;;2.35;;
19560;SDS011;9927;47.792;10.616;2023-07-13T11:30:20;3.05;;;2.85;;
19560;SDS011;9927;47.792;10.616;2023-07-13T11:32:50;3.38;;;3.17;;
19560;SDS011;9927;47.792;10.616;2023-07-13T11:35:22;3.40;;;3.20;;
19560;SDS011;9927;47.792;10.616;2023-07-13T11:37:52;3.20;;;3.00;;
19560;SDS011;9927;47.792;10.616;2023-07-13T11:40:21;3.80;;;3.05;;
19560;SDS011;9927;47.792;10.616;2023-07-13T11:42:50;5.72;;;3.13;;
19560;SDS011;9927;47.792;10.616;2023-07-13T11:45:19;5.82;;;3.45;;
19560;SDS011;9927;47.792;10.616;2023-07-13T11:48:27;3.10;;;2.78;;
19560;SDS011;9927;47.792;10.616;2023-07-13T11:50:59;4.05;;;3.55;;
19560;SDS011;9927;47.792;10.616;2023-07-13T11:53:31;5.10;;;3.65;;
19560;SDS011;9927;47.792;10.616;2023-07-13T11:56:06;4.63;;;4.22;;
19560;SDS011;9927;47.792;10.616;2023-07-13T11:58:34;4.90;;;4.50;;
19560;SDS011;9927;47.792;10.616;2023-07-13T12:01:02;6.43;;;4.20;;
19560;SDS011;9927;47.792;10.616;2023-07-13T12:03:34;4.35;;;3.95;;
19560;SDS011;9927;47.792;10.616;2023-07-13T12:06:03;4.22;;;3.88;;
19560;SDS011;9927;47.792;10.616;2023-07-13T12:08:38;4.00;;;3.70;;
19560;SDS011;9927;47.792;10.616;2023-07-13T12:11:13;4.47;;;3.60;;
19560;SDS011;9927;47.792;10.616;2023-07-13T12:13:43;4.70;;;3.75;;
19560;SDS011;9927;47.792;10.616;2023-07-13T12:16:14;4.40;;;4.00;;
19560;SDS011;9927;47.792;10.616;2023-07-13T12:18:53;5.43;;;3.38;;
19560;SDS011;9927;47.792;10.616;2023-07-13T12:21:23;3.58;;;3.28;;
19560;SDS011;9927;47.792;10.616;2023-07-13T12:24:01;4.57;;;3.60;;
19560;SDS011;9927;47.792;10.616;2023-07-13T12:26:30;3.25;;;3.08;;
19560;SDS011;9927;47.792;10.616;2023-07-13T12:28:59;5.00;;;4.70;;
19560;SDS011;9927;47.792;10.616;2023-07-13T12:31:36;3.95;;;3.58;;
19560;SDS011;9927;47.792;10.616;2023-07-13T12:34:10;4.85;;;3.60;;
19560;SDS011;9927;47.792;10.616;2023-07-13T12:37:13;5.55;;;3.25;;
19560;SDS011;9927;47.792;10.616;2023-07-13T12:39:43;4.03;;;3.72;;
19560;SDS011;9927;47.792;10.616;2023-07-13T12:45:01;3.92;;;3.63;;
19560;SDS011;9927;47.792;10.616;2023-07-13T12:47:44;4.53;;;3.70;;
19560;SDS011;9927;47.792;10.616;2023-07-13T12:50:18;3.55;;;3.33;;
19560;SDS011;9927;47.792;10.616;2023-07-13T12:52:52;3.92;;;3.67;;
19560;SDS011;9927;47.792;10.616;2023-07-13T12:55:21;3.63;;;3.35;;
19560;SDS011;9927;47.792;10.616;2023-07-13T12:57:54;4.40;;;3.30;;
19560;SDS011;9927;47.792;10.616;2023-07-13T13:03:07;5.43;;;3.40;;
19560;SDS011;9927;47.792;10.616;2023-07-13T13:08:34;3.53;;;3.28;;
19560;SDS011;9927;47.792;10.616;2023-07-13T13:11:02;3.55;;;3.28;;
19560;SDS011;9927;47.792;10.616;2023-07-13T13:13:30;3.35;;;3.13;;
19560;SDS011;9927;47.792;10.616;2023-07-13T13:16:01;3.53;;;3.33;;
19560;SDS011;9927;47.792;10.616;2023-07-13T13:18:53;3.90;;;3.15;;
19560;SDS011;9927;47.792;10.616;2023-07-13T13:21:21;3.20;;;3.08;;
19560;SDS011;9927;47.792;10.616;2023-07-13T13:23:48;3.60;;;3.30;;
19560;SDS011;9927;47.792;10.616;2023-07-13T13:26:18;6.00;;;3.45;;
19560;SDS011;9927;47.792;10.616;2023-07-13T13:28:46;3.28;;;3.00;;
19560;SDS011;9927;47.792;10.616;2023-07-13T13:31:19;4.60;;;2.90;;
19560;SDS011;9927;47.792;10.616;2023-07-13T13:33:46;2.45;;;2.35;;
19560;SDS011;9927;47.792;10.616;2023-07-13T13:36:15;2.75;;;2.53;;
19560;SDS011;9927;47.792;10.616;2023-07-13T13:38:49;2.63;;;2.53;;
19560;SDS011;9927;47.792;10.616;2023-07-13T13:41:17;2.70;;;2.50;;
19560;SDS011;9927;47.792;10.616;2023-07-13T13:43:44;2.85;;;2.65;;
19560;SDS011;9927;47.792;10.616;2023-07-13T13:46:14;2.65;;;2.55;;
19560;SDS011;9927;47.792;10.616;2023-07-13T13:48:44;2.80;;;2.70;;
19560;SDS011;9927;47.792;10.616;2023-07-13T13:51:16;3.08;;;2.40;;
19560;SDS011;9927;47.792;10.616;2023-07-13T13:53:47;2.67;;;2.53;;
19560;SDS011;9927;47.792;10.616;2023-07-13T13:56:15;3.08;;;2.88;;
19560;SDS011;9927;47.792;10.616;2023-07-13T13:58:45;2.88;;;2.63;;
19560;SDS011;9927;47.792;10.616;2023-07-13T14:01:14;3.47;;;3.00;;
19560;SDS011;9927;47.792;10.616;2023-07-13T14:03:47;3.00;;;2.63;;
19560;SDS011;9927;47.792;10.616;2023-07-13T14:06:20;2.60;;;2.40;;
19560;SDS011;9927;47.792;10.616;2023-07-13T14:08:47;2.65;;;2.45;;
19560;SDS011;9927;47.792;10.616;2023-07-13T14:11:16;3.33;;;2.70;;
19560;SDS011;9927;47.792;10.616;2023-07-13T14:13:47;2.70;;;2.50;;
19560;SDS011;9927;47.792;10.616;2023-07-13T14:16:19;2.85;;;2.72;;
19560;SDS011;9927;47.792;10.616;2023-07-13T14:18:49;2.75;;;2.55;;
19560;SDS011;9927;47.792;10.616;2023-07-13T14:21:17;2.83;;;2.72;;
19560;SDS011;9927;47.792;10.616;2023-07-13T14:23:47;3.10;;;2.80;;
19560;SDS011;9927;47.792;10.616;2023-07-13T14:26:16;3.03;;;2.90;;
19560;SDS011;9927;47.792;10.616;2023-07-13T14:28:52;3.58;;;3.03;;
19560;SDS011;9927;47.792;10.616;2023-07-13T14:31:22;2.72;;;2.53;;
19560;SDS011;9927;47.792;10.616;2023-07-13T14:33:56;2.58;;;2.47;;
19560;SDS011;9927;47.792;10.616;2023-07-13T14:36:31;2.65;;;2.55;;
19560;SDS011;9927;47.792;10.616;2023-07-13T14:38:59;2.20;;;2.10;;
19560;SDS011;9927;47.792;10.616;2023-07-13T14:41:32;2.72;;;2.60;;
19560;SDS011;9927;47.792;10.616;2023-07-13T14:44:00;2.70;;;2.53;;
19560;SDS011;9927;47.792;10.616;2023-07-13T14:46:29;2.75;;;2.65;;
19560;SDS011;9927;47.792;10.616;2023-07-13T14:48:59;2.50;;;2.40;;
19560;SDS011;9927;47.792;10.616;2023-07-13T14:51:30;3.38;;;2.80;;
19560;SDS011;9927;47.792;10.616;2023-07-13T14:54:02;2.97;;;2.85;;
19560;SDS011;9927;47.792;10.616;2023-07-13T14:56:31;2.63;;;2.53;;
19560;SDS011;9927;47.792;10.616;2023-07-13T14:58:58;3.22;;;2.92;;
19560;SDS011;9927;47.792;10.616;2023-07-13T15:01:25;2.88;;;2.78;;
19560;SDS011;9927;47.792;10.616;2023-07-13T15:03:53;2.85;;;2.75;;
19560;SDS011;9927;47.792;10.616;2023-07-13T15:06:21;3.03;;;2.83;;
19560;SDS011;9927;47.792;10.616;2023-07-13T15:08:48;2.65;;;2.40;;
19560;SDS011;9927;47.792;10.616;2023-07-13T15:11:15;2.83;;;2.40;;
19560;SDS011;9927;47.792;10.616;2023-07-13T15:13:43;2.63;;;2.42;;
19560;SDS011;9927;47.792;10.616;2023-07-13T15:16:16;3.85;;;3.47;;
19560;SDS011;9927;47.792;10.616;2023-07-13T15:18:49;2.97;;;2.72;;
19560;SDS011;9927;47.792;10.616;2023-07-13T15:21:22;5.60;;;5.07;;
19560;SDS011;9927;47.792;10.616;2023-07-13T15:23:50;3.17;;;2.88;;
19560;SDS011;9927;47.792;10.616;2023-07-13T15:26:18;2.80;;;2.60;;
19560;SDS011;9927;47.792;10.616;2023-07-13T15:28:46;3.08;;;2.80;;
19560;SDS011;9927;47.792;10.616;2023-07-13T15:31:18;2.78;;;2.58;;
19560;SDS011;9927;47.792;10.616;2023-07-13T15:33:46;3.35;;;2.47;;
19560;SDS011;9927;47.792;10.616;2023-07-13T15:36:16;3.45;;;3.25;;
19560;SDS011;9927;47.792;10.616;2023-07-13T15:38:45;2.95;;;2.65;;
19560;SDS011;9927;47.792;10.616;2023-07-13T15:43:49;3.15;;;2.45;;
19560;SDS011;9927;47.792;10.616;2023-07-13T15:46:18;2.30;;;2.20;;
19560;SDS011;9927;47.792;10.616;2023-07-13T15:48:49;2.55;;;2.35;;
19560;SDS011;9927;47.792;10.616;2023-07-13T15:51:20;2.50;;;2.22;;